createdAt,value
2023-05-06T00:00:54.101Z,63.85
2023-05-06T00:03:21.438Z,63.69
2023-05-06T00:05:49.398Z,63.63
2023-05-06T00:08:17.278Z,63.26
2023-05-06T00:10:46.026Z,62.83
2023-05-06T00:13:14.742Z,62.60
2023-05-06T00:15:41.918Z,62.65
2023-05-06T00:18:09.193Z,62.81
2023-05-06T00:20:36.490Z,63.23
2023-05-06T00:23:03.604Z,63.38
2023-05-06T00:25:30.650Z,62.93
2023-05-06T00:30:25.800Z,62.67
2023-05-06T00:32:54.957Z,62.61
2023-05-06T00:35:22.066Z,62.93
2023-05-06T00:37:58.478Z,63.06
2023-05-06T00:40:25.595Z,62.78
2023-05-06T00:42:52.625Z,62.92
2023-05-06T00:47:46.837Z,62.63
2023-05-06T00:50:14.079Z,62.97
2023-05-06T00:52:41.292Z,62.46
2023-05-06T00:55:09.708Z,62.42
2023-05-06T00:57:37.691Z,62.55
2023-05-06T01:03:28.977Z,62.08
2023-05-06T01:06:01.891Z,61.48
2023-05-06T01:08:47.631Z,61.99
2023-05-06T01:11:40.059Z,61.73
2023-05-06T01:14:18.308Z,61.54
2023-05-06T01:16:50.479Z,61.14
2023-05-06T01:19:34.984Z,61.01
2023-05-06T01:22:05.327Z,61.30
2023-05-06T01:24:43.664Z,61.08
2023-05-06T01:27:12.921Z,61.16
2023-05-06T01:29:46.702Z,60.95
2023-05-06T01:32:19.764Z,60.83
2023-05-06T01:35:08.948Z,60.96
2023-05-06T01:37:46.724Z,60.72
2023-05-06T01:40:16.839Z,60.49
2023-05-06T01:42:47.801Z,60.93
2023-05-06T01:45:17.146Z,60.37
2023-05-06T01:47:46.998Z,60.56
2023-05-06T01:50:14.527Z,60.38
2023-05-06T01:52:41.794Z,60.07
2023-05-06T01:55:09.782Z,60.01
2023-05-06T01:57:36.945Z,59.89
2023-05-06T02:00:04.451Z,60.06
2023-05-06T02:02:39.302Z,59.92
2023-05-06T02:05:08.676Z,59.56
2023-05-06T02:07:40.429Z,59.35
2023-05-06T02:10:11.628Z,59.04
2023-05-06T02:12:42.416Z,59.33
2023-05-06T02:15:10.099Z,59.17
2023-05-06T02:17:38.700Z,58.95
2023-05-06T02:20:06.509Z,59.26
2023-05-06T02:22:33.622Z,59.52
2023-05-06T02:25:01.272Z,59.26
2023-05-06T02:27:28.344Z,59.03
2023-05-06T02:29:55.692Z,59.17
2023-05-06T02:32:22.909Z,58.85
2023-05-06T02:34:49.927Z,59.07
2023-05-06T02:37:16.979Z,58.90
2023-05-06T02:39:44.131Z,58.72
2023-05-06T02:42:15.035Z,58.36
2023-05-06T02:44:42.533Z,58.41
2023-05-06T02:47:09.629Z,58.54
2023-05-06T02:49:39.234Z,58.58
2023-05-06T02:52:09.637Z,59.46
2023-05-06T02:54:39.517Z,59.07
2023-05-06T02:57:06.666Z,58.97
2023-05-06T02:59:35.872Z,59.14
2023-05-06T03:02:03.381Z,59.19
2023-05-06T03:04:30.908Z,59.49
2023-05-06T03:06:58.192Z,60.15
2023-05-06T03:09:25.332Z,59.75
2023-05-06T03:11:52.448Z,59.80
2023-05-06T03:14:20.896Z,59.60
2023-05-06T03:16:48.092Z,59.96
2023-05-06T03:19:16.065Z,59.38
2023-05-06T03:21:44.824Z,59.81
2023-05-06T03:24:12.135Z,59.92
2023-05-06T03:26:42.183Z,59.50
2023-05-06T03:29:11.765Z,59.42
2023-05-06T03:31:42.743Z,59.39
2023-05-06T03:34:11.437Z,59.46
2023-05-06T03:36:38.673Z,59.41
2023-05-06T03:39:05.983Z,59.18
2023-05-06T03:41:35.189Z,58.75
2023-05-06T03:44:02.479Z,58.46
2023-05-06T03:46:32.008Z,58.93
2023-05-06T03:49:00.955Z,59.06
2023-05-06T03:51:31.218Z,59.10
2023-05-06T03:53:58.472Z,58.77
2023-05-06T03:56:25.599Z,59.06
2023-05-06T03:58:55.292Z,58.42
2023-05-06T04:01:24.812Z,58.55
2023-05-06T04:03:52.950Z,58.74
2023-05-06T04:06:20.233Z,58.72
2023-05-06T04:08:47.729Z,58.88
2023-05-06T04:11:15.160Z,58.42
2023-05-06T04:13:42.853Z,58.36
2023-05-06T04:16:14.804Z,58.79
2023-05-06T04:18:47.672Z,58.33
2023-05-06T04:21:19.017Z,58.79
2023-05-06T04:23:52.824Z,58.44
2023-05-06T04:26:25.365Z,58.11
2023-05-06T04:28:52.445Z,58.54
2023-05-06T04:31:19.755Z,58.34
2023-05-06T04:33:50.133Z,58.44
2023-05-06T04:36:21.604Z,58.21
2023-05-06T04:39:10.579Z,58.32
2023-05-06T04:41:38.736Z,58.65
2023-05-06T04:44:06.464Z,58.54
2023-05-06T04:46:34.292Z,58.98
2023-05-06T04:49:02.985Z,58.67
2023-05-06T04:51:31.802Z,59.00
2023-05-06T04:53:59.902Z,58.69
2023-05-06T04:56:27.059Z,59.34
2023-05-06T04:58:54.415Z,59.17
2023-05-06T05:01:22.651Z,59.65
2023-05-06T05:03:53.031Z,59.65
2023-05-06T05:06:21.868Z,59.34
2023-05-06T05:08:48.998Z,59.30
2023-05-06T05:11:16.820Z,59.53
2023-05-06T05:13:43.913Z,59.15
2023-05-06T05:16:11.265Z,59.44
2023-05-06T05:18:41.452Z,59.29
2023-05-06T05:21:16.016Z,59.62
2023-05-06T05:23:43.612Z,59.40
2023-05-06T05:26:11.697Z,59.55
2023-05-06T05:28:40.076Z,59.42
2023-05-06T05:31:09.644Z,59.46
2023-05-06T05:33:37.792Z,59.72
2023-05-06T05:36:08.628Z,60.15
2023-05-06T05:38:40.438Z,59.76
2023-05-06T05:41:08.651Z,59.28
2023-05-06T05:43:36.154Z,59.70
2023-05-06T05:46:03.799Z,59.65
2023-05-06T05:48:32.973Z,59.25
2023-05-06T05:51:02.755Z,59.36
2023-05-06T05:53:30.010Z,59.38
2023-05-06T05:55:59.825Z,59.46
2023-05-06T05:58:27.177Z,59.13
2023-05-06T06:00:57.575Z,59.63
2023-05-06T06:03:25.263Z,60.13
2023-05-06T06:05:55.295Z,60.81
2023-05-06T06:08:28.639Z,60.47
2023-05-06T06:11:09.047Z,60.64
2023-05-06T06:13:53.712Z,60.69
2023-05-06T06:16:27.549Z,60.35
2023-05-06T06:19:00.571Z,59.68
2023-05-06T06:21:35.751Z,59.38
2023-05-06T06:24:13.186Z,59.00
2023-05-06T06:26:48.482Z,59.30
2023-05-06T06:29:16.698Z,59.20
2023-05-06T06:31:44.060Z,58.91
2023-05-06T06:34:12.944Z,58.65
2023-05-06T06:36:45.503Z,58.88
2023-05-06T06:39:20.309Z,58.45
2023-05-06T06:41:51.484Z,58.61
2023-05-06T06:44:18.705Z,58.90
2023-05-06T06:46:57.102Z,58.16
2023-05-06T06:49:33.877Z,58.38
2023-05-06T06:52:03.952Z,58.78
2023-05-06T06:54:43.173Z,58.70
2023-05-06T06:57:21.876Z,58.42
2023-05-06T06:59:57.298Z,57.98
2023-05-06T07:02:36.449Z,57.80
2023-05-06T07:05:17.943Z,57.87
2023-05-06T07:07:56.567Z,57.52
2023-05-06T07:10:34.990Z,57.69
2023-05-06T07:13:16.885Z,56.97
2023-05-06T07:15:53.102Z,57.26
2023-05-06T07:18:33.776Z,56.91
2023-05-06T07:21:32.388Z,56.62
2023-05-06T07:24:09.162Z,56.41
2023-05-06T07:26:44.914Z,55.87
2023-05-06T07:29:25.268Z,55.55
2023-05-06T07:32:01.101Z,55.07
2023-05-06T07:34:50.295Z,54.79
2023-05-06T07:37:34.463Z,53.89
2023-05-06T07:40:21.955Z,54.32
2023-05-06T07:43:00.077Z,53.01
2023-05-06T07:45:33.362Z,52.57
2023-05-06T07:48:11.549Z,52.56
2023-05-06T07:50:47.660Z,50.54
2023-05-06T07:53:31.301Z,50.04
2023-05-06T07:56:04.993Z,50.31
2023-05-06T07:58:51.516Z,49.24
2023-05-06T08:01:26.526Z,49.40
2023-05-06T08:04:04.793Z,46.53
2023-05-06T08:06:41.251Z,46.27
2023-05-06T08:09:19.697Z,46.54
2023-05-06T08:12:19.193Z,46.23
2023-05-06T08:14:58.494Z,46.93
2023-05-06T08:17:40.679Z,46.90
2023-05-06T08:20:25.204Z,48.01
2023-05-06T08:23:12.263Z,48.71
2023-05-06T08:26:14.897Z,48.51
2023-05-06T08:29:02.082Z,49.40
2023-05-06T08:31:46.071Z,48.98
2023-05-06T08:34:26.809Z,49.38
2023-05-06T08:37:08.076Z,49.21
2023-05-06T08:39:50.407Z,49.11
2023-05-06T08:42:46.872Z,48.28
2023-05-06T08:45:23.746Z,48.42
2023-05-06T08:48:07.016Z,48.93
2023-05-06T08:50:43.364Z,48.25
2023-05-06T08:53:21.817Z,47.50
2023-05-06T08:56:27.556Z,47.83
2023-05-06T08:59:09.658Z,46.08
2023-05-06T09:01:53.745Z,46.85
2023-05-06T09:04:36.943Z,47.40
2023-05-06T09:07:25.889Z,46.20
2023-05-06T09:10:11.333Z,46.26
2023-05-06T09:12:48.027Z,46.07
2023-05-06T09:15:24.258Z,46.97
2023-05-06T09:18:00.970Z,46.51
2023-05-06T09:20:39.673Z,46.67
2023-05-06T09:23:21.105Z,48.07
2023-05-06T09:25:53.815Z,46.64
2023-05-06T09:28:37.164Z,45.58
2023-05-06T09:31:39.948Z,46.73
2023-05-06T09:34:28.437Z,46.31
2023-05-06T09:37:28.304Z,46.26
2023-05-06T09:40:04.618Z,45.52
2023-05-06T09:42:35.423Z,45.36
2023-05-06T09:45:21.095Z,45.92
2023-05-06T09:48:04.731Z,46.59
2023-05-06T09:50:46.223Z,46.56
2023-05-06T09:53:35.802Z,46.43
2023-05-06T09:56:27.304Z,44.62
2023-05-06T09:59:09.542Z,44.03
2023-05-06T10:01:52.713Z,44.07
2023-05-06T10:04:29.992Z,43.70
2023-05-06T10:07:13.885Z,43.03
2023-05-06T10:09:54.360Z,42.37
2023-05-06T10:12:36.955Z,43.72
2023-05-06T10:15:27.359Z,42.71
2023-05-06T10:18:08.283Z,42.11
2023-05-06T10:20:49.783Z,42.37
2023-05-06T10:23:53.853Z,42.67
2023-05-06T10:26:36.300Z,43.45
2023-05-06T10:29:17.960Z,45.29
2023-05-06T10:32:02.250Z,44.83
2023-05-06T10:34:56.758Z,45.94
2023-05-06T10:37:29.315Z,45.77
2023-05-06T10:40:00.965Z,45.64
2023-05-06T10:42:34.590Z,45.29
2023-05-06T10:45:04.494Z,45.59
2023-05-06T10:47:56.331Z,45.14
2023-05-06T10:50:28.031Z,44.84
2023-05-06T10:53:01.212Z,44.77
2023-05-06T10:55:33.765Z,44.77
2023-05-06T10:58:04.448Z,44.63
2023-05-06T11:00:33.210Z,45.47
2023-05-06T11:03:09.372Z,45.06
2023-05-06T11:05:52.763Z,45.35
2023-05-06T11:08:27.678Z,44.76
2023-05-06T11:10:55.404Z,45.59
2023-05-06T11:13:29.380Z,44.94
2023-05-06T11:16:00.390Z,46.21
2023-05-06T11:18:49.483Z,45.64
2023-05-06T11:21:34.589Z,45.63
2023-05-06T11:24:04.959Z,45.17
2023-05-06T11:26:49.924Z,44.30
2023-05-06T11:29:38.073Z,45.37
2023-05-06T11:32:23.696Z,44.54
2023-05-06T11:35:11.821Z,43.42
2023-05-06T11:37:48.071Z,43.78
2023-05-06T11:40:17.291Z,43.96
2023-05-06T11:43:26.264Z,43.62
2023-05-06T11:46:00.804Z,43.67
2023-05-06T11:48:33.748Z,44.16
2023-05-06T11:51:19.087Z,43.86
2023-05-06T11:54:17.566Z,44.96
2023-05-06T11:57:18.631Z,43.89
2023-05-06T12:00:08.989Z,44.69
2023-05-06T12:02:49.410Z,43.57
2023-05-06T12:05:23.757Z,43.93
2023-05-06T12:08:41.081Z,44.55
2023-05-06T12:11:16.363Z,44.95
2023-05-06T12:13:58.737Z,44.85
2023-05-06T12:16:35.775Z,45.74
2023-05-06T12:19:06.370Z,46.03
2023-05-06T12:21:42.821Z,45.69
2023-05-06T12:24:11.074Z,47.21
2023-05-06T12:26:55.878Z,46.00
2023-05-06T12:29:29.787Z,45.92
2023-05-06T12:32:25.036Z,47.29
2023-05-06T12:34:59.888Z,46.50
2023-05-06T12:37:36.181Z,47.52
2023-05-06T12:40:12.046Z,47.62
2023-05-06T12:43:03.692Z,47.18
2023-05-06T12:45:38.114Z,46.76
2023-05-06T12:48:35.445Z,46.86
2023-05-06T12:51:31.171Z,48.46
2023-05-06T12:54:05.580Z,47.68
2023-05-06T12:56:36.659Z,48.54
2023-05-06T12:59:09.210Z,49.31
2023-05-06T13:01:42.388Z,49.37
2023-05-06T13:04:12.719Z,49.69
2023-05-06T13:06:49.070Z,50.38
2023-05-06T13:09:26.170Z,50.77
2023-05-06T13:12:02.747Z,50.49
2023-05-06T13:14:44.803Z,50.69
2023-05-06T13:17:18.033Z,50.92
2023-05-06T13:19:51.359Z,51.03
2023-05-06T13:22:23.980Z,50.59
2023-05-06T13:24:54.870Z,51.06
2023-05-06T13:27:33.441Z,51.51
2023-05-06T13:30:07.709Z,51.98
2023-05-06T13:32:38.223Z,51.92
2023-05-06T13:35:10.576Z,52.06
2023-05-06T13:37:41.410Z,52.18
2023-05-06T13:40:15.184Z,51.69
2023-05-06T13:42:56.434Z,51.06
2023-05-06T13:45:35.393Z,51.96
2023-05-06T13:48:05.323Z,51.32
2023-05-06T13:50:46.020Z,50.61
2023-05-06T13:53:26.590Z,51.68
2023-05-06T13:56:21.289Z,50.68
2023-05-06T13:59:07.194Z,50.23
2023-05-06T14:01:46.938Z,49.00
2023-05-06T14:04:19.472Z,48.51
2023-05-06T14:07:01.508Z,48.58
2023-05-06T14:09:46.710Z,48.13
2023-05-06T14:15:11.526Z,47.30
2023-05-06T14:17:49.711Z,47.92
2023-05-06T14:20:27.950Z,47.82
2023-05-06T14:23:00.523Z,48.25
2023-05-06T14:25:30.964Z,48.36
2023-05-06T14:28:06.645Z,50.25
2023-05-06T14:31:05.935Z,49.77
2023-05-06T14:33:50.595Z,50.86
2023-05-06T14:36:31.314Z,50.49
2023-05-06T14:39:08.957Z,50.39
2023-05-06T14:41:42.385Z,50.03
2023-05-06T14:44:12.911Z,50.83
2023-05-06T14:46:48.015Z,51.54
2023-05-06T14:49:15.366Z,51.72
2023-05-06T14:51:48.077Z,51.18
2023-05-06T14:54:38.374Z,51.93
2023-05-06T14:57:31.971Z,53.18
2023-05-06T15:00:07.546Z,53.02
2023-05-06T15:02:42.629Z,52.33
2023-05-06T15:05:24.820Z,52.10
2023-05-06T15:08:01.023Z,53.34
2023-05-06T15:10:41.585Z,52.73
2023-05-06T15:13:25.317Z,53.03
2023-05-06T15:15:59.526Z,52.67
2023-05-06T15:18:33.768Z,52.73
2023-05-06T15:21:01.754Z,52.61
2023-05-06T15:23:31.469Z,52.82
2023-05-06T15:26:06.629Z,52.36
2023-05-06T15:28:37.581Z,52.62
2023-05-06T15:31:12.778Z,53.17
2023-05-06T15:33:48.011Z,54.19
2023-05-06T15:36:23.744Z,52.15
2023-05-06T15:39:13.719Z,52.95
2023-05-06T15:41:56.166Z,53.03
2023-05-06T15:44:23.501Z,53.10
2023-05-06T15:46:50.696Z,53.98
2023-05-06T15:52:01.031Z,53.35
2023-05-06T15:54:50.439Z,53.92
2023-05-06T16:00:13.678Z,53.75
2023-05-06T16:02:47.154Z,53.57
2023-05-06T16:05:14.486Z,54.09
2023-05-06T16:07:43.992Z,53.85
2023-05-06T16:10:16.530Z,52.80
2023-05-06T16:12:57.972Z,52.80
2023-05-06T16:15:38.462Z,53.16
2023-05-06T16:18:25.218Z,53.76
2023-05-06T16:20:56.841Z,52.71
2023-05-06T16:23:26.907Z,52.63
2023-05-06T16:26:00.378Z,52.98
2023-05-06T16:28:28.288Z,53.55
2023-05-06T16:30:56.177Z,53.38
2023-05-06T16:33:26.071Z,54.13
2023-05-06T16:35:59.427Z,53.63
2023-05-06T16:38:27.362Z,52.83
2023-05-06T16:41:03.300Z,54.33
2023-05-06T16:43:33.381Z,54.38
2023-05-06T16:46:00.929Z,52.80
2023-05-06T16:48:30.661Z,53.02
2023-05-06T16:51:04.896Z,53.63
2023-05-06T16:53:45.499Z,53.55
2023-05-06T16:56:13.540Z,54.74
2023-05-06T16:58:46.032Z,53.95
2023-05-06T17:01:18.255Z,53.66
2023-05-06T17:03:46.192Z,53.34
2023-05-06T17:06:13.919Z,53.56
2023-05-06T17:08:44.211Z,53.54
2023-05-06T17:11:23.324Z,52.78
2023-05-06T17:13:50.786Z,53.17
2023-05-06T17:16:20.783Z,53.19
2023-05-06T17:18:50.786Z,52.93
2023-05-06T17:21:18.669Z,53.24
2023-05-06T17:23:52.875Z,53.17
2023-05-06T17:26:25.694Z,52.82
2023-05-06T17:28:52.908Z,53.85
2023-05-06T17:31:20.368Z,53.58
2023-05-06T17:33:53.557Z,53.34
2023-05-06T17:36:34.881Z,53.90
2023-05-06T17:39:10.399Z,54.71
2023-05-06T17:41:37.800Z,53.49
2023-05-06T17:44:06.798Z,54.59
2023-05-06T17:46:34.066Z,54.29
2023-05-06T17:49:03.879Z,53.75
2023-05-06T17:51:31.769Z,53.50
2023-05-06T17:53:59.733Z,52.95
2023-05-06T17:56:29.751Z,53.53
2023-05-06T17:59:06.747Z,53.65
2023-05-06T18:01:41.445Z,53.68
2023-05-06T18:04:10.968Z,53.47
2023-05-06T18:06:38.638Z,53.63
2023-05-06T18:09:06.152Z,53.98
2023-05-06T18:11:37.507Z,53.49
2023-05-06T18:14:08.980Z,53.40
2023-05-06T18:16:37.919Z,52.72
2023-05-06T18:19:05.424Z,53.81
2023-05-06T18:21:38.129Z,53.87
2023-05-06T18:24:17.279Z,54.36
2023-05-06T18:26:51.411Z,54.57
2023-05-06T18:29:30.281Z,55.28
2023-05-06T18:32:06.841Z,54.92
2023-05-06T18:34:37.497Z,56.24
2023-05-06T18:37:07.888Z,55.98
2023-05-06T18:39:45.745Z,56.12
2023-05-06T18:42:13.085Z,56.09
2023-05-06T18:44:53.759Z,55.76
2023-05-06T18:47:27.363Z,55.17
2023-05-06T18:50:02.834Z,55.67
2023-05-06T18:52:32.672Z,55.08
2023-05-06T18:55:00.084Z,55.86
2023-05-06T18:57:27.838Z,55.65
2023-05-06T18:59:58.200Z,55.89
2023-05-06T19:02:26.965Z,56.25
2023-05-06T19:04:56.908Z,56.14
2023-05-06T19:07:27.084Z,56.42
2023-05-06T19:10:00.876Z,55.70
2023-05-06T19:12:40.591Z,56.31
2023-05-06T19:15:08.746Z,56.12
2023-05-06T19:17:39.428Z,56.14
2023-05-06T19:20:09.784Z,56.31
2023-05-06T19:22:37.099Z,56.38
2023-05-06T19:25:04.529Z,56.84
2023-05-06T19:27:35.150Z,56.55
2023-05-06T19:30:05.104Z,57.01
2023-05-06T19:32:33.104Z,57.12
2023-05-06T19:35:08.372Z,57.24
2023-05-06T19:37:36.079Z,56.69
2023-05-06T19:40:06.884Z,56.85
2023-05-06T19:42:37.236Z,56.38
2023-05-06T19:45:09.038Z,56.17
2023-05-06T19:47:36.393Z,56.38
2023-05-06T19:50:06.199Z,56.58
2023-05-06T19:52:34.830Z,56.26
2023-05-06T19:55:03.400Z,56.39
2023-05-06T19:57:34.141Z,57.04
2023-05-06T20:00:05.983Z,56.68
2023-05-06T20:02:33.941Z,55.58
2023-05-06T20:05:01.018Z,56.27
2023-05-06T20:07:30.607Z,56.03
2023-05-06T20:09:58.751Z,56.21
2023-05-06T20:12:29.181Z,56.39
2023-05-06T20:14:56.824Z,56.37
2023-05-06T20:17:26.647Z,56.15
2023-05-06T20:19:58.757Z,55.99
2023-05-06T20:22:26.596Z,56.14
2023-05-06T20:24:54.092Z,56.04
2023-05-06T20:27:21.497Z,56.42
2023-05-06T20:29:50.043Z,56.28
2023-05-06T20:32:17.305Z,56.35
2023-05-06T20:34:44.348Z,56.54
2023-05-06T20:37:12.111Z,56.18
2023-05-06T20:39:39.282Z,55.51
2023-05-06T20:42:09.939Z,55.17
2023-05-06T20:44:41.421Z,55.42
2023-05-06T20:47:12.679Z,55.13
2023-05-06T20:49:40.046Z,54.81
2023-05-06T20:52:08.214Z,54.33
2023-05-06T20:54:35.306Z,54.18
2023-05-06T20:57:05.282Z,53.87
2023-05-06T20:59:32.437Z,54.13
2023-05-06T21:01:59.713Z,54.27
2023-05-06T21:04:27.028Z,52.86
2023-05-06T21:06:54.090Z,53.02
2023-05-06T21:09:23.840Z,52.26
2023-05-06T21:11:51.782Z,52.21
2023-05-06T21:14:19.131Z,52.52
2023-05-06T21:16:46.181Z,52.13
2023-05-06T21:19:13.497Z,51.88
2023-05-06T21:21:40.611Z,51.88
2023-05-06T21:24:08.713Z,51.72
2023-05-06T21:26:35.896Z,51.26
2023-05-06T21:29:02.957Z,51.40
2023-05-06T21:31:30.457Z,51.39
2023-05-06T21:33:58.989Z,51.30
2023-05-06T21:36:26.331Z,50.78
2023-05-06T21:39:08.127Z,50.85
2023-05-06T21:41:36.256Z,50.45
2023-05-06T21:44:04.707Z,50.57
2023-05-06T21:46:32.668Z,50.57
2023-05-06T21:48:59.985Z,50.57
2023-05-06T21:51:35.309Z,50.53
2023-05-06T21:54:03.130Z,50.49
2023-05-06T21:56:30.839Z,50.59
2023-05-06T21:59:01.300Z,50.93
2023-05-06T22:01:31.397Z,51.00
2023-05-06T22:04:01.883Z,50.97
2023-05-06T22:06:31.757Z,51.17
2023-05-06T22:09:00.199Z,52.04
2023-05-06T22:11:27.386Z,51.83
2023-05-06T22:13:54.396Z,51.20
2023-05-06T22:16:22.338Z,51.45
2023-05-06T22:18:49.586Z,51.33
2023-05-06T22:21:16.882Z,51.04
2023-05-06T22:23:44.751Z,51.41
2023-05-06T22:26:13.452Z,51.11
2023-05-06T22:28:42.290Z,51.19
2023-05-06T22:31:10.016Z,51.07
2023-05-06T22:33:37.068Z,51.42
2023-05-06T22:36:04.512Z,51.50
2023-05-06T22:38:32.686Z,51.49
2023-05-06T22:41:04.544Z,51.69
2023-05-06T22:43:36.108Z,51.35
2023-05-06T22:46:04.064Z,51.40
2023-05-06T22:48:34.981Z,51.03
2023-05-06T22:51:05.921Z,51.02
2023-05-06T22:53:33.027Z,50.89
2023-05-06T22:56:00.180Z,50.55
2023-05-06T22:58:27.242Z,50.40
2023-05-06T23:00:55.080Z,50.34
2023-05-06T23:03:25.288Z,50.08
2023-05-06T23:05:52.531Z,49.75
2023-05-06T23:08:19.756Z,49.73
2023-05-06T23:10:47.081Z,49.39
2023-05-06T23:13:16.568Z,48.92
2023-05-06T23:15:43.715Z,48.23
2023-05-06T23:18:11.640Z,48.27
2023-05-06T23:20:38.874Z,48.46
2023-05-06T23:23:08.920Z,48.29
2023-05-06T23:25:36.269Z,48.58
2023-05-06T23:28:03.643Z,48.59
2023-05-06T23:30:30.944Z,48.94
2023-05-06T23:32:58.225Z,48.77
2023-05-06T23:35:26.298Z,49.18
2023-05-06T23:37:53.426Z,49.34
2023-05-06T23:40:23.722Z,49.23
2023-05-06T23:42:50.762Z,49.14
2023-05-06T23:45:17.780Z,49.85
2023-05-06T23:47:44.846Z,50.36
2023-05-06T23:50:12.656Z,50.54
2023-05-06T23:52:41.043Z,50.60
2023-05-06T23:55:08.627Z,50.97
2023-05-06T23:57:39.071Z,51.15
